sensor_id;sensor_type;location;lat;lon;timestamp;temperature;humidity
63445;DHT22;49573;47.682;9.170;2022-08-19T00:02:13;18.60;88.80
63445;DHT22;49573;47.682;9.170;2022-08-19T00:04:59;18.60;88.80
63445;DHT22;49573;47.682;9.170;2022-08-19T00:07:45;18.50;89.30
63445;DHT22;49573;47.682;9.170;2022-08-19T00:10:31;18.50;89.00
63445;DHT22;49573;47.682;9.170;2022-08-19T00:13:19;18.50;89.10
63445;DHT22;49573;47.682;9.170;2022-08-19T00:16:06;18.60;89.00
63445;DHT22;49573;47.682;9.170;2022-08-19T00:18:52;18.60;88.90
63445;DHT22;49573;47.682;9.170;2022-08-19T00:21:39;18.60;88.90
63445;DHT22;49573;47.682;9.170;2022-08-19T00:24:25;18.60;88.80
63445;DHT22;49573;47.682;9.170;2022-08-19T00:27:11;18.70;88.60
63445;DHT22;49573;47.682;9.170;2022-08-19T00:29:59;18.70;88.20
63445;DHT22;49573;47.682;9.170;2022-08-19T00:32:45;18.70;87.70
63445;DHT22;49573;47.682;9.170;2022-08-19T00:35:31;18.60;88.30
63445;DHT22;49573;47.682;9.170;2022-08-19T00:38:19;18.70;88.30
63445;DHT22;49573;47.682;9.170;2022-08-19T00:41:08;18.70;88.30
63445;DHT22;49573;47.682;9.170;2022-08-19T00:44:00;18.80;88.20
63445;DHT22;49573;47.682;9.170;2022-08-19T00:46:49;18.80;88.40
63445;DHT22;49573;47.682;9.170;2022-08-19T00:49:39;18.70;88.10
63445;DHT22;49573;47.682;9.170;2022-08-19T00:52:29;18.80;88.20
63445;DHT22;49573;47.682;9.170;2022-08-19T00:55:18;18.80;88.20
63445;DHT22;49573;47.682;9.170;2022-08-19T00:58:07;18.80;88.40
63445;DHT22;49573;47.682;9.170;2022-08-19T01:00:53;18.80;88.40
63445;DHT22;49573;47.682;9.170;2022-08-19T01:03:41;18.80;88.60
63445;DHT22;49573;47.682;9.170;2022-08-19T01:06:27;18.80;88.10
63445;DHT22;49573;47.682;9.170;2022-08-19T01:09:13;18.80;88.20
63445;DHT22;49573;47.682;9.170;2022-08-19T01:12:00;18.80;88.30
63445;DHT22;49573;47.682;9.170;2022-08-19T01:14:46;18.80;88.30
63445;DHT22;49573;47.682;9.170;2022-08-19T01:17:33;18.80;88.10
63445;DHT22;49573;47.682;9.170;2022-08-19T01:20:22;18.80;88.20
63445;DHT22;49573;47.682;9.170;2022-08-19T01:23:11;18.80;88.20
63445;DHT22;49573;47.682;9.170;2022-08-19T01:25:57;18.80;87.90
63445;DHT22;49573;47.682;9.170;2022-08-19T01:28:45;18.80;87.90
63445;DHT22;49573;47.682;9.170;2022-08-19T01:31:31;18.80;87.90
63445;DHT22;49573;47.682;9.170;2022-08-19T01:34:18;18.80;87.80
63445;DHT22;49573;47.682;9.170;2022-08-19T01:37:07;18.80;88.10
63445;DHT22;49573;47.682;9.170;2022-08-19T01:39:55;18.80;88.20
63445;DHT22;49573;47.682;9.170;2022-08-19T01:42:41;18.80;88.00
63445;DHT22;49573;47.682;9.170;2022-08-19T01:45:29;18.70;87.80
63445;DHT22;49573;47.682;9.170;2022-08-19T01:48:16;18.70;88.20
63445;DHT22;49573;47.682;9.170;2022-08-19T01:51:02;18.70;88.40
63445;DHT22;49573;47.682;9.170;2022-08-19T01:53:49;18.60;88.40
63445;DHT22;49573;47.682;9.170;2022-08-19T01:56:37;18.70;88.30
63445;DHT22;49573;47.682;9.170;2022-08-19T01:59:24;18.70;88.30
63445;DHT22;49573;47.682;9.170;2022-08-19T02:02:10;18.70;88.20
63445;DHT22;49573;47.682;9.170;2022-08-19T02:04:56;18.70;88.20
63445;DHT22;49573;47.682;9.170;2022-08-19T02:07:42;18.80;88.00
63445;DHT22;49573;47.682;9.170;2022-08-19T02:10:30;18.70;88.20
63445;DHT22;49573;47.682;9.170;2022-08-19T02:13:18;18.70;88.20
63445;DHT22;49573;47.682;9.170;2022-08-19T02:16:04;18.70;88.20
63445;DHT22;49573;47.682;9.170;2022-08-19T02:18:51;18.70;88.10
63445;DHT22;49573;47.682;9.170;2022-08-19T02:21:37;18.70;88.10
63445;DHT22;49573;47.682;9.170;2022-08-19T02:24:23;18.80;88.00
63445;DHT22;49573;47.682;9.170;2022-08-19T02:27:09;18.80;87.90
63445;DHT22;49573;47.682;9.170;2022-08-19T02:29:57;18.80;88.20
63445;DHT22;49573;47.682;9.170;2022-08-19T02:32:43;18.80;88.10
63445;DHT22;49573;47.682;9.170;2022-08-19T02:35:29;18.80;88.10
63445;DHT22;49573;47.682;9.170;2022-08-19T02:38:16;18.80;88.20
63445;DHT22;49573;47.682;9.170;2022-08-19T02:41:13;18.80;88.20
63445;DHT22;49573;47.682;9.170;2022-08-19T02:46:37;18.80;88.20
63445;DHT22;49573;47.682;9.170;2022-08-19T02:49:23;18.80;88.30
63445;DHT22;49573;47.682;9.170;2022-08-19T02:52:09;18.80;88.30
63445;DHT22;49573;47.682;9.170;2022-08-19T02:54:56;18.80;88.40
63445;DHT22;49573;47.682;9.170;2022-08-19T02:57:43;18.80;88.20
63445;DHT22;49573;47.682;9.170;2022-08-19T03:00:29;18.80;88.20
63445;DHT22;49573;47.682;9.170;2022-08-19T03:03:17;18.80;88.20
63445;DHT22;49573;47.682;9.170;2022-08-19T03:06:08;18.80;88.10
63445;DHT22;49573;47.682;9.170;2022-08-19T03:08:54;18.80;88.30
63445;DHT22;49573;47.682;9.170;2022-08-19T03:11:41;18.80;88.20
63445;DHT22;49573;47.682;9.170;2022-08-19T03:14:29;18.80;88.30
63445;DHT22;49573;47.682;9.170;2022-08-19T03:17:16;18.80;88.40
63445;DHT22;49573;47.682;9.170;2022-08-19T03:20:06;18.80;88.10
63445;DHT22;49573;47.682;9.170;2022-08-19T03:22:52;18.80;88.40
63445;DHT22;49573;47.682;9.170;2022-08-19T03:25:38;18.80;88.60
63445;DHT22;49573;47.682;9.170;2022-08-19T03:28:26;18.80;88.30
63445;DHT22;49573;47.682;9.170;2022-08-19T03:31:13;18.70;88.50
63445;DHT22;49573;47.682;9.170;2022-08-19T03:33:59;18.70;88.80
63445;DHT22;49573;47.682;9.170;2022-08-19T03:36:47;18.70;88.80
63445;DHT22;49573;47.682;9.170;2022-08-19T03:39:36;18.80;88.50
63445;DHT22;49573;47.682;9.170;2022-08-19T03:42:22;18.70;88.40
63445;DHT22;49573;47.682;9.170;2022-08-19T03:45:09;18.80;88.50
63445;DHT22;49573;47.682;9.170;2022-08-19T03:47:56;18.70;88.80
63445;DHT22;49573;47.682;9.170;2022-08-19T03:50:42;18.70;88.50
63445;DHT22;49573;47.682;9.170;2022-08-19T03:53:31;18.70;88.80
63445;DHT22;49573;47.682;9.170;2022-08-19T03:56:17;18.80;88.90
63445;DHT22;49573;47.682;9.170;2022-08-19T03:59:05;18.70;89.10
63445;DHT22;49573;47.682;9.170;2022-08-19T04:01:53;18.70;89.20
63445;DHT22;49573;47.682;9.170;2022-08-19T04:04:41;18.80;89.00
63445;DHT22;49573;47.682;9.170;2022-08-19T04:07:28;18.80;89.10
63445;DHT22;49573;47.682;9.170;2022-08-19T04:10:16;18.80;89.00
63445;DHT22;49573;47.682;9.170;2022-08-19T04:13:02;18.80;88.90
63445;DHT22;49573;47.682;9.170;2022-08-19T04:15:49;18.80;89.20
63445;DHT22;49573;47.682;9.170;2022-08-19T04:18:36;18.80;88.70
63445;DHT22;49573;47.682;9.170;2022-08-19T04:21:24;18.80;88.80
63445;DHT22;49573;47.682;9.170;2022-08-19T04:24:11;18.80;88.50
63445;DHT22;49573;47.682;9.170;2022-08-19T04:27:00;18.80;88.50
63445;DHT22;49573;47.682;9.170;2022-08-19T04:29:46;18.80;88.70
63445;DHT22;49573;47.682;9.170;2022-08-19T04:32:33;18.80;88.40
63445;DHT22;49573;47.682;9.170;2022-08-19T04:35:21;18.80;88.80
63445;DHT22;49573;47.682;9.170;2022-08-19T04:38:07;18.80;88.70
63445;DHT22;49573;47.682;9.170;2022-08-19T04:40:53;18.80;88.80
63445;DHT22;49573;47.682;9.170;2022-08-19T04:43:59;18.70;89.10
63445;DHT22;49573;47.682;9.170;2022-08-19T04:46:46;18.70;89.10
63445;DHT22;49573;47.682;9.170;2022-08-19T04:49:33;18.70;89.30
63445;DHT22;49573;47.682;9.170;2022-08-19T04:52:19;18.70;89.20
63445;DHT22;49573;47.682;9.170;2022-08-19T04:55:06;18.70;89.10
63445;DHT22;49573;47.682;9.170;2022-08-19T04:57:52;18.70;89.20
63445;DHT22;49573;47.682;9.170;2022-08-19T05:00:40;18.70;89.00
63445;DHT22;49573;47.682;9.170;2022-08-19T05:03:26;18.70;89.20
63445;DHT22;49573;47.682;9.170;2022-08-19T05:06:15;18.70;89.10
63445;DHT22;49573;47.682;9.170;2022-08-19T05:09:02;18.80;88.70
63445;DHT22;49573;47.682;9.170;2022-08-19T05:11:48;18.70;89.20
63445;DHT22;49573;47.682;9.170;2022-08-19T05:14:35;18.70;89.20
63445;DHT22;49573;47.682;9.170;2022-08-19T05:17:24;18.70;89.10
63445;DHT22;49573;47.682;9.170;2022-08-19T05:20:10;18.80;89.00
63445;DHT22;49573;47.682;9.170;2022-08-19T05:23:14;18.70;89.10
63445;DHT22;49573;47.682;9.170;2022-08-19T05:26:02;18.70;88.90
63445;DHT22;49573;47.682;9.170;2022-08-19T05:28:49;18.80;88.80
63445;DHT22;49573;47.682;9.170;2022-08-19T05:31:36;18.70;88.80
63445;DHT22;49573;47.682;9.170;2022-08-19T05:34:24;18.70;88.60
63445;DHT22;49573;47.682;9.170;2022-08-19T05:37:11;18.80;88.80
63445;DHT22;49573;47.682;9.170;2022-08-19T05:39:57;18.80;88.80
63445;DHT22;49573;47.682;9.170;2022-08-19T05:42:44;18.70;89.00
63445;DHT22;49573;47.682;9.170;2022-08-19T05:45:30;18.70;89.10
63445;DHT22;49573;47.682;9.170;2022-08-19T05:48:16;18.70;89.10
63445;DHT22;49573;47.682;9.170;2022-08-19T05:51:06;18.70;89.00
63445;DHT22;49573;47.682;9.170;2022-08-19T05:53:53;18.70;89.00
63445;DHT22;49573;47.682;9.170;2022-08-19T05:56:40;18.70;89.00
63445;DHT22;49573;47.682;9.170;2022-08-19T05:59:26;18.70;89.10
63445;DHT22;49573;47.682;9.170;2022-08-19T06:02:12;18.70;89.10
63445;DHT22;49573;47.682;9.170;2022-08-19T06:04:59;18.70;89.10
63445;DHT22;49573;47.682;9.170;2022-08-19T06:07:47;18.60;89.30
63445;DHT22;49573;47.682;9.170;2022-08-19T06:10:33;18.60;89.40
63445;DHT22;49573;47.682;9.170;2022-08-19T06:13:19;18.50;89.70
63445;DHT22;49573;47.682;9.170;2022-08-19T06:16:05;18.50;89.90
63445;DHT22;49573;47.682;9.170;2022-08-19T06:18:52;18.60;89.30
63445;DHT22;49573;47.682;9.170;2022-08-19T06:21:41;18.50;89.70
63445;DHT22;49573;47.682;9.170;2022-08-19T06:24:30;18.50;89.90
63445;DHT22;49573;47.682;9.170;2022-08-19T06:27:17;18.60;89.70
63445;DHT22;49573;47.682;9.170;2022-08-19T06:30:04;18.60;90.00
63445;DHT22;49573;47.682;9.170;2022-08-19T06:32:50;18.70;89.60
63445;DHT22;49573;47.682;9.170;2022-08-19T06:35:38;18.70;89.60
63445;DHT22;49573;47.682;9.170;2022-08-19T06:38:24;18.60;89.70
63445;DHT22;49573;47.682;9.170;2022-08-19T06:41:12;18.60;89.80
63445;DHT22;49573;47.682;9.170;2022-08-19T06:43:58;18.70;89.60
63445;DHT22;49573;47.682;9.170;2022-08-19T06:46:44;18.70;89.50
63445;DHT22;49573;47.682;9.170;2022-08-19T06:49:30;18.60;89.50
63445;DHT22;49573;47.682;9.170;2022-08-19T06:52:19;18.70;88.90
63445;DHT22;49573;47.682;9.170;2022-08-19T06:55:06;18.70;89.00
63445;DHT22;49573;47.682;9.170;2022-08-19T06:57:53;18.70;89.00
63445;DHT22;49573;47.682;9.170;2022-08-19T07:00:39;18.70;89.10
63445;DHT22;49573;47.682;9.170;2022-08-19T07:03:26;18.80;89.20
63445;DHT22;49573;47.682;9.170;2022-08-19T07:06:16;18.80;89.20
63445;DHT22;49573;47.682;9.170;2022-08-19T07:09:04;18.80;89.20
63445;DHT22;49573;47.682;9.170;2022-08-19T07:11:51;18.80;89.30
63445;DHT22;49573;47.682;9.170;2022-08-19T07:14:39;18.80;89.30
63445;DHT22;49573;47.682;9.170;2022-08-19T07:17:25;18.80;89.30
63445;DHT22;49573;47.682;9.170;2022-08-19T07:20:12;18.90;89.20
63445;DHT22;49573;47.682;9.170;2022-08-19T07:22:58;18.90;89.10
63445;DHT22;49573;47.682;9.170;2022-08-19T07:25:44;18.90;88.90
63445;DHT22;49573;47.682;9.170;2022-08-19T07:28:30;18.90;89.00
63445;DHT22;49573;47.682;9.170;2022-08-19T07:31:20;18.90;89.00
63445;DHT22;49573;47.682;9.170;2022-08-19T07:34:08;18.90;88.70
63445;DHT22;49573;47.682;9.170;2022-08-19T07:36:56;18.80;88.80
63445;DHT22;49573;47.682;9.170;2022-08-19T07:39:43;18.90;88.80
63445;DHT22;49573;47.682;9.170;2022-08-19T07:42:29;18.90;88.70
63445;DHT22;49573;47.682;9.170;2022-08-19T07:45:15;18.90;88.60
63445;DHT22;49573;47.682;9.170;2022-08-19T07:48:03;18.90;89.00
63445;DHT22;49573;47.682;9.170;2022-08-19T07:50:49;18.90;89.00
63445;DHT22;49573;47.682;9.170;2022-08-19T07:53:37;18.80;88.90
63445;DHT22;49573;47.682;9.170;2022-08-19T07:56:23;18.80;89.30
63445;DHT22;49573;47.682;9.170;2022-08-19T07:59:09;18.80;89.20
63445;DHT22;49573;47.682;9.170;2022-08-19T08:01:56;19.00;88.80
63445;DHT22;49573;47.682;9.170;2022-08-19T08:04:46;19.00;88.90
63445;DHT22;49573;47.682;9.170;2022-08-19T08:07:51;19.00;88.90
63445;DHT22;49573;47.682;9.170;2022-08-19T08:10:55;19.00;88.70
63445;DHT22;49573;47.682;9.170;2022-08-19T08:13:42;18.90;89.30
63445;DHT22;49573;47.682;9.170;2022-08-19T08:16:28;18.80;89.20
63445;DHT22;49573;47.682;9.170;2022-08-19T08:19:18;18.80;89.00
63445;DHT22;49573;47.682;9.170;2022-08-19T08:22:07;18.90;88.90
63445;DHT22;49573;47.682;9.170;2022-08-19T08:24:53;18.90;88.90
63445;DHT22;49573;47.682;9.170;2022-08-19T08:27:41;18.90;89.00
63445;DHT22;49573;47.682;9.170;2022-08-19T08:30:29;19.00;88.90
63445;DHT22;49573;47.682;9.170;2022-08-19T08:33:18;19.00;89.00
63445;DHT22;49573;47.682;9.170;2022-08-19T08:36:05;18.80;89.20
63445;DHT22;49573;47.682;9.170;2022-08-19T08:38:52;18.90;89.00
63445;DHT22;49573;47.682;9.170;2022-08-19T08:41:46;18.90;89.10
63445;DHT22;49573;47.682;9.170;2022-08-19T08:44:40;18.80;89.00
63445;DHT22;49573;47.682;9.170;2022-08-19T08:47:32;18.80;89.00
63445;DHT22;49573;47.682;9.170;2022-08-19T08:50:25;18.80;89.10
63445;DHT22;49573;47.682;9.170;2022-08-19T08:53:19;18.80;88.80
63445;DHT22;49573;47.682;9.170;2022-08-19T08:56:08;18.70;89.10
63445;DHT22;49573;47.682;9.170;2022-08-19T08:59:00;18.70;89.00
63445;DHT22;49573;47.682;9.170;2022-08-19T09:01:47;18.60;88.60
63445;DHT22;49573;47.682;9.170;2022-08-19T09:04:34;18.60;88.90
63445;DHT22;49573;47.682;9.170;2022-08-19T09:07:28;18.60;88.90
63445;DHT22;49573;47.682;9.170;2022-08-19T09:10:21;18.70;88.90
63445;DHT22;49573;47.682;9.170;2022-08-19T09:13:23;18.50;89.10
63445;DHT22;49573;47.682;9.170;2022-08-19T09:16:19;18.50;89.20
63445;DHT22;49573;47.682;9.170;2022-08-19T09:19:07;18.50;89.30
63445;DHT22;49573;47.682;9.170;2022-08-19T09:21:54;18.50;89.30
63445;DHT22;49573;47.682;9.170;2022-08-19T09:24:40;18.50;89.20
63445;DHT22;49573;47.682;9.170;2022-08-19T09:27:27;18.50;89.10
63445;DHT22;49573;47.682;9.170;2022-08-19T09:30:15;18.50;88.80
63445;DHT22;49573;47.682;9.170;2022-08-19T09:33:02;18.60;88.90
63445;DHT22;49573;47.682;9.170;2022-08-19T09:35:48;18.50;88.60
63445;DHT22;49573;47.682;9.170;2022-08-19T09:38:34;18.50;88.90
63445;DHT22;49573;47.682;9.170;2022-08-19T09:41:23;18.50;88.40
63445;DHT22;49573;47.682;9.170;2022-08-19T09:44:09;18.50;88.90
63445;DHT22;49573;47.682;9.170;2022-08-19T09:46:59;18.40;88.70
63445;DHT22;49573;47.682;9.170;2022-08-19T09:49:45;18.40;88.80
63445;DHT22;49573;47.682;9.170;2022-08-19T09:52:34;18.30;88.90
63445;DHT22;49573;47.682;9.170;2022-08-19T09:55:22;18.30;88.80
63445;DHT22;49573;47.682;9.170;2022-08-19T09:58:08;18.30;88.90
63445;DHT22;49573;47.682;9.170;2022-08-19T10:00:55;18.30;88.90
63445;DHT22;49573;47.682;9.170;2022-08-19T10:03:42;18.30;88.80
63445;DHT22;49573;47.682;9.170;2022-08-19T10:06:29;18.30;89.10
63445;DHT22;49573;47.682;9.170;2022-08-19T10:09:19;18.20;89.20
63445;DHT22;49573;47.682;9.170;2022-08-19T10:12:06;18.20;89.10
63445;DHT22;49573;47.682;9.170;2022-08-19T10:14:52;18.20;89.30
63445;DHT22;49573;47.682;9.170;2022-08-19T10:17:40;18.20;89.70
63445;DHT22;49573;47.682;9.170;2022-08-19T10:20:27;18.10;89.90
63445;DHT22;49573;47.682;9.170;2022-08-19T10:23:15;18.20;89.90
63445;DHT22;49573;47.682;9.170;2022-08-19T10:26:02;18.20;89.80
63445;DHT22;49573;47.682;9.170;2022-08-19T10:28:50;18.30;89.60
63445;DHT22;49573;47.682;9.170;2022-08-19T10:31:36;18.20;89.70
63445;DHT22;49573;47.682;9.170;2022-08-19T10:34:22;18.20;89.70
63445;DHT22;49573;47.682;9.170;2022-08-19T10:37:10;18.20;89.70
63445;DHT22;49573;47.682;9.170;2022-08-19T10:39:56;18.20;89.80
63445;DHT22;49573;47.682;9.170;2022-08-19T10:42:42;18.20;90.30
63445;DHT22;49573;47.682;9.170;2022-08-19T10:45:29;18.20;90.40
63445;DHT22;49573;47.682;9.170;2022-08-19T10:48:15;18.20;90.10
63445;DHT22;49573;47.682;9.170;2022-08-19T10:51:02;18.30;90.40
63445;DHT22;49573;47.682;9.170;2022-08-19T10:54:07;18.30;90.30
63445;DHT22;49573;47.682;9.170;2022-08-19T10:56:54;18.30;90.50
63445;DHT22;49573;47.682;9.170;2022-08-19T10:59:41;18.30;90.40
63445;DHT22;49573;47.682;9.170;2022-08-19T11:02:27;18.40;90.00
63445;DHT22;49573;47.682;9.170;2022-08-19T11:05:14;18.40;90.00
63445;DHT22;49573;47.682;9.170;2022-08-19T11:08:00;18.50;89.80
63445;DHT22;49573;47.682;9.170;2022-08-19T11:10:48;18.40;90.00
63445;DHT22;49573;47.682;9.170;2022-08-19T11:13:37;18.40;90.10
63445;DHT22;49573;47.682;9.170;2022-08-19T11:16:26;18.30;90.00
63445;DHT22;49573;47.682;9.170;2022-08-19T11:19:14;18.30;90.30
63445;DHT22;49573;47.682;9.170;2022-08-19T11:22:02;18.30;89.80
63445;DHT22;49573;47.682;9.170;2022-08-19T11:24:49;18.40;89.70
63445;DHT22;49573;47.682;9.170;2022-08-19T11:27:39;18.40;89.60
63445;DHT22;49573;47.682;9.170;2022-08-19T11:30:27;18.30;90.00
63445;DHT22;49573;47.682;9.170;2022-08-19T11:33:13;18.30;90.00
63445;DHT22;49573;47.682;9.170;2022-08-19T11:35:59;18.30;90.20
63445;DHT22;49573;47.682;9.170;2022-08-19T11:38:46;18.30;90.20
63445;DHT22;49573;47.682;9.170;2022-08-19T11:41:34;18.30;90.40
63445;DHT22;49573;47.682;9.170;2022-08-19T11:44:21;18.30;90.00
63445;DHT22;49573;47.682;9.170;2022-08-19T11:47:08;18.20;90.00
63445;DHT22;49573;47.682;9.170;2022-08-19T11:49:54;18.20;90.10
63445;DHT22;49573;47.682;9.170;2022-08-19T11:52:40;18.20;90.40
63445;DHT22;49573;47.682;9.170;2022-08-19T11:55:26;18.20;90.10
63445;DHT22;49573;47.682;9.170;2022-08-19T11:58:12;18.20;90.10
63445;DHT22;49573;47.682;9.170;2022-08-19T12:01:00;18.20;90.20
63445;DHT22;49573;47.682;9.170;2022-08-19T12:03:48;18.20;90.50
63445;DHT22;49573;47.682;9.170;2022-08-19T12:06:38;18.20;90.20
63445;DHT22;49573;47.682;9.170;2022-08-19T12:09:24;18.20;90.60
63445;DHT22;49573;47.682;9.170;2022-08-19T12:12:11;18.20;90.80
63445;DHT22;49573;47.682;9.170;2022-08-19T12:14:57;18.30;90.60
63445;DHT22;49573;47.682;9.170;2022-08-19T12:17:45;18.30;90.60
63445;DHT22;49573;47.682;9.170;2022-08-19T12:20:34;18.30;90.50
63445;DHT22;49573;47.682;9.170;2022-08-19T12:23:20;18.30;90.50
63445;DHT22;49573;47.682;9.170;2022-08-19T12:26:08;18.40;90.40
63445;DHT22;49573;47.682;9.170;2022-08-19T12:28:54;18.40;90.40
63445;DHT22;49573;47.682;9.170;2022-08-19T12:31:40;18.40;90.30
63445;DHT22;49573;47.682;9.170;2022-08-19T12:34:29;18.30;90.10
63445;DHT22;49573;47.682;9.170;2022-08-19T12:37:18;18.30;90.10
63445;DHT22;49573;47.682;9.170;2022-08-19T12:40:05;18.30;89.90
63445;DHT22;49573;47.682;9.170;2022-08-19T12:42:51;18.30;90.00
63445;DHT22;49573;47.682;9.170;2022-08-19T12:45:37;18.30;89.90
63445;DHT22;49573;47.682;9.170;2022-08-19T12:48:23;18.30;89.60
63445;DHT22;49573;47.682;9.170;2022-08-19T12:51:13;18.30;89.30
63445;DHT22;49573;47.682;9.170;2022-08-19T12:53:59;18.20;89.40
63445;DHT22;49573;47.682;9.170;2022-08-19T12:56:47;18.30;89.50
63445;DHT22;49573;47.682;9.170;2022-08-19T12:59:33;18.30;89.50
63445;DHT22;49573;47.682;9.170;2022-08-19T13:02:20;18.30;89.20
63445;DHT22;49573;47.682;9.170;2022-08-19T13:05:08;18.30;89.10
63445;DHT22;49573;47.682;9.170;2022-08-19T13:07:58;18.30;89.20
63445;DHT22;49573;47.682;9.170;2022-08-19T13:10:45;18.30;89.20
63445;DHT22;49573;47.682;9.170;2022-08-19T13:13:32;18.30;89.20
63445;DHT22;49573;47.682;9.170;2022-08-19T13:16:19;18.30;89.40
63445;DHT22;49573;47.682;9.170;2022-08-19T13:19:06;18.40;89.40
63445;DHT22;49573;47.682;9.170;2022-08-19T13:21:53;18.40;89.00
63445;DHT22;49573;47.682;9.170;2022-08-19T13:24:42;18.50;89.20
63445;DHT22;49573;47.682;9.170;2022-08-19T13:27:29;18.50;89.20
63445;DHT22;49573;47.682;9.170;2022-08-19T13:30:17;18.60;89.20
63445;DHT22;49573;47.682;9.170;2022-08-19T13:33:22;18.70;89.30
63445;DHT22;49573;47.682;9.170;2022-08-19T13:36:08;18.60;89.00
63445;DHT22;49573;47.682;9.170;2022-08-19T13:38:54;18.70;89.20
63445;DHT22;49573;47.682;9.170;2022-08-19T13:41:45;18.70;89.00
63445;DHT22;49573;47.682;9.170;2022-08-19T13:44:33;18.80;88.90
63445;DHT22;49573;47.682;9.170;2022-08-19T13:47:19;18.80;88.80
63445;DHT22;49573;47.682;9.170;2022-08-19T13:50:06;18.80;88.50
63445;DHT22;49573;47.682;9.170;2022-08-19T13:52:53;18.90;88.70
63445;DHT22;49573;47.682;9.170;2022-08-19T13:55:40;18.90;88.60
63445;DHT22;49573;47.682;9.170;2022-08-19T13:58:28;18.80;88.80
63445;DHT22;49573;47.682;9.170;2022-08-19T14:01:19;18.90;88.30
63445;DHT22;49573;47.682;9.170;2022-08-19T14:04:06;18.90;88.20
63445;DHT22;49573;47.682;9.170;2022-08-19T14:06:52;18.90;88.60
63445;DHT22;49573;47.682;9.170;2022-08-19T14:09:38;18.90;88.70
63445;DHT22;49573;47.682;9.170;2022-08-19T14:12:24;18.80;89.00
63445;DHT22;49573;47.682;9.170;2022-08-19T14:15:12;18.90;88.80
63445;DHT22;49573;47.682;9.170;2022-08-19T14:17:58;18.90;88.80
63445;DHT22;49573;47.682;9.170;2022-08-19T14:20:44;18.80;88.80
63445;DHT22;49573;47.682;9.170;2022-08-19T14:23:30;18.80;88.70
63445;DHT22;49573;47.682;9.170;2022-08-19T14:26:18;18.80;89.20
63445;DHT22;49573;47.682;9.170;2022-08-19T14:29:05;18.90;89.00
63445;DHT22;49573;47.682;9.170;2022-08-19T14:31:52;18.90;89.00
63445;DHT22;49573;47.682;9.170;2022-08-19T14:34:38;19.00;89.20
63445;DHT22;49573;47.682;9.170;2022-08-19T14:37:24;19.00;89.00
63445;DHT22;49573;47.682;9.170;2022-08-19T14:40:12;19.00;89.30
63445;DHT22;49573;47.682;9.170;2022-08-19T14:43:00;19.00;89.00
63445;DHT22;49573;47.682;9.170;2022-08-19T14:45:49;19.00;88.90
63445;DHT22;49573;47.682;9.170;2022-08-19T14:48:36;19.00;88.80
63445;DHT22;49573;47.682;9.170;2022-08-19T14:51:24;19.10;88.60
63445;DHT22;49573;47.682;9.170;2022-08-19T14:54:12;19.00;87.80
63445;DHT22;49573;47.682;9.170;2022-08-19T14:56:58;19.00;88.70
63445;DHT22;49573;47.682;9.170;2022-08-19T14:59:44;19.00;88.00
63445;DHT22;49573;47.682;9.170;2022-08-19T15:02:30;19.00;88.30
63445;DHT22;49573;47.682;9.170;2022-08-19T15:05:18;19.00;88.40
63445;DHT22;49573;47.682;9.170;2022-08-19T15:08:05;19.10;88.50
63445;DHT22;49573;47.682;9.170;2022-08-19T15:10:51;19.00;88.10
63445;DHT22;49573;47.682;9.170;2022-08-19T15:13:38;19.10;88.10
63445;DHT22;49573;47.682;9.170;2022-08-19T15:16:26;19.10;88.10
63445;DHT22;49573;47.682;9.170;2022-08-19T15:19:12;19.10;88.40
63445;DHT22;49573;47.682;9.170;2022-08-19T15:22:00;19.20;88.20
63445;DHT22;49573;47.682;9.170;2022-08-19T15:24:47;19.10;88.20
63445;DHT22;49573;47.682;9.170;2022-08-19T15:27:33;19.10;87.70
63445;DHT22;49573;47.682;9.170;2022-08-19T15:30:22;19.00;88.40
63445;DHT22;49573;47.682;9.170;2022-08-19T15:33:10;18.80;88.50
63445;DHT22;49573;47.682;9.170;2022-08-19T15:35:59;18.80;88.40
63445;DHT22;49573;47.682;9.170;2022-08-19T15:38:47;18.90;88.50
63445;DHT22;49573;47.682;9.170;2022-08-19T15:41:33;18.80;88.60
63445;DHT22;49573;47.682;9.170;2022-08-19T15:44:19;18.90;88.70
63445;DHT22;49573;47.682;9.170;2022-08-19T15:47:06;18.80;88.40
63445;DHT22;49573;47.682;9.170;2022-08-19T15:49:52;18.80;88.70
63445;DHT22;49573;47.682;9.170;2022-08-19T15:52:44;18.80;88.40
63445;DHT22;49573;47.682;9.170;2022-08-19T15:55:35;19.00;88.70
63445;DHT22;49573;47.682;9.170;2022-08-19T15:58:21;18.90;88.90
63445;DHT22;49573;47.682;9.170;2022-08-19T16:01:26;19.00;88.80
63445;DHT22;49573;47.682;9.170;2022-08-19T16:04:30;19.00;88.60
63445;DHT22;49573;47.682;9.170;2022-08-19T16:07:35;19.10;88.90
63445;DHT22;49573;47.682;9.170;2022-08-19T16:10:21;19.10;88.90
63445;DHT22;49573;47.682;9.170;2022-08-19T16:13:09;19.10;88.80
63445;DHT22;49573;47.682;9.170;2022-08-19T16:15:55;19.20;88.80
63445;DHT22;49573;47.682;9.170;2022-08-19T16:18:42;19.10;88.80
63445;DHT22;49573;47.682;9.170;2022-08-19T16:21:29;19.30;88.80
63445;DHT22;49573;47.682;9.170;2022-08-19T16:24:21;19.20;88.80
63445;DHT22;49573;47.682;9.170;2022-08-19T16:27:07;19.30;89.00
63445;DHT22;49573;47.682;9.170;2022-08-19T16:29:55;19.30;88.40
63445;DHT22;49573;47.682;9.170;2022-08-19T16:32:42;19.20;88.50
63445;DHT22;49573;47.682;9.170;2022-08-19T16:35:28;19.30;88.60
63445;DHT22;49573;47.682;9.170;2022-08-19T16:38:14;19.10;88.00
63445;DHT22;49573;47.682;9.170;2022-08-19T16:41:00;19.20;88.00
63445;DHT22;49573;47.682;9.170;2022-08-19T16:43:47;19.10;87.80
63445;DHT22;49573;47.682;9.170;2022-08-19T16:46:38;19.10;88.40
63445;DHT22;49573;47.682;9.170;2022-08-19T16:49:26;19.10;88.00
63445;DHT22;49573;47.682;9.170;2022-08-19T16:52:13;19.20;88.20
63445;DHT22;49573;47.682;9.170;2022-08-19T16:54:59;19.10;87.90
63445;DHT22;49573;47.682;9.170;2022-08-19T16:57:45;19.20;87.80
63445;DHT22;49573;47.682;9.170;2022-08-19T17:00:31;19.20;87.90
63445;DHT22;49573;47.682;9.170;2022-08-19T17:03:20;19.10;87.90
63445;DHT22;49573;47.682;9.170;2022-08-19T17:06:12;19.20;87.90
63445;DHT22;49573;47.682;9.170;2022-08-19T17:09:00;19.20;88.10
63445;DHT22;49573;47.682;9.170;2022-08-19T17:11:46;19.20;88.00
63445;DHT22;49573;47.682;9.170;2022-08-19T17:14:32;19.10;88.20
63445;DHT22;49573;47.682;9.170;2022-08-19T17:17:19;19.10;88.40
63445;DHT22;49573;47.682;9.170;2022-08-19T17:20:07;19.00;88.50
63445;DHT22;49573;47.682;9.170;2022-08-19T17:22:54;19.00;88.40
63445;DHT22;49573;47.682;9.170;2022-08-19T17:25:42;19.00;88.40
63445;DHT22;49573;47.682;9.170;2022-08-19T17:28:29;19.00;88.50
63445;DHT22;49573;47.682;9.170;2022-08-19T17:31:15;18.90;88.30
63445;DHT22;49573;47.682;9.170;2022-08-19T17:34:01;18.90;88.60
63445;DHT22;49573;47.682;9.170;2022-08-19T17:36:49;18.80;88.30
63445;DHT22;49573;47.682;9.170;2022-08-19T17:39:35;18.80;88.40
63445;DHT22;49573;47.682;9.170;2022-08-19T17:42:23;18.80;88.30